Time;durP1;ratioP1;P1;durP2;ratioP2;P2;SDS_P1;SDS_P2;PMS_P1;PMS_P2;Temp;Humidity;BMP_temperature;BMP_pressure;BME280_temperature;BME280_humidity;BME280_pressure;Samples;Min_cycle;Max_cycle;Signal;HPM_P1;HPM_P2
2023/08/14 00:00:54;;;;;;;0.30;0.30;;;;;;;22.64;100.00;100023.63;5077650;28;20060;-59
2023/08/14 00:03:20;;;;;;;0.30;0.30;;;;;;;22.66;100.00;100037.91;5088589;28;20031;-59
2023/08/14 00:05:45;;;;;;;0.30;0.30;;;;;;;22.65;100.00;100049.75;5077305;28;20123;-59
2023/08/14 00:08:11;;;;;;;0.30;0.30;;;;;;;22.64;100.00;100045.31;5068118;28;20051;-59
2023/08/14 00:10:36;;;;;;;0.30;0.30;;;;;;;22.70;100.00;100071.91;5070123;28;20016;-59
2023/08/14 00:13:02;;;;;;;0.30;0.30;;;;;;;22.77;100.00;100105.69;5069326;28;20032;-59
2023/08/14 00:15:27;;;;;;;0.30;0.30;;;;;;;22.82;100.00;100098.06;5068409;28;20090;-60
2023/08/14 00:17:52;;;;;;;0.30;0.30;;;;;;;22.90;100.00;100063.03;5068230;28;20397;-60
2023/08/14 00:20:18;;;;;;;0.30;0.30;;;;;;;22.97;100.00;100072.38;5076106;28;20467;-60
2023/08/14 00:22:43;;;;;;;0.30;0.30;;;;;;;23.02;100.00;100061.13;5075103;28;20114;-60
2023/08/14 00:25:10;;;;;;;0.30;0.30;;;;;;;23.09;100.00;100046.09;5088350;28;20428;-60
2023/08/14 00:27:35;;;;;;;0.30;0.30;;;;;;;23.11;100.00;100033.25;5088512;28;20039;-60
2023/08/14 00:30:01;;;;;;;0.30;0.30;;;;;;;23.14;100.00;100039.28;5079918;28;20032;-60
2023/08/14 00:32:26;;;;;;;0.40;0.40;;;;;;;23.14;100.00;100039.28;5068396;28;20025;-60
2023/08/14 00:34:52;;;;;;;0.40;0.40;;;;;;;23.14;100.00;100044.72;5075692;28;20039;-60
2023/08/14 00:37:17;;;;;;;0.30;0.30;;;;;;;23.16;100.00;100056.28;5087798;28;20544;-59
2023/08/14 00:39:43;;;;;;;0.30;0.30;;;;;;;23.17;100.00;100066.16;5084896;28;20027;-60
2023/08/14 00:42:08;;;;;;;0.30;0.30;;;;;;;23.16;100.00;100064.44;5069160;28;20127;-60
2023/08/14 00:44:33;;;;;;;0.28;0.28;;;;;;;23.17;100.00;100059.88;5066805;28;20028;-60
2023/08/14 00:46:59;;;;;;;0.30;0.30;;;;;;;23.16;100.00;100061.72;5066206;28;20028;-60
2023/08/14 00:49:25;;;;;;;0.30;0.30;;;;;;;23.11;100.00;100047.66;5068195;28;20036;-60
2023/08/14 00:51:51;;;;;;;0.30;0.30;;;;;;;23.12;100.00;100043.97;5083903;28;20028;-60
2023/08/14 00:54:16;;;;;;;0.30;0.30;;;;;;;23.12;100.00;100030.41;5085429;28;20028;-60
2023/08/14 00:56:41;;;;;;;0.30;0.30;;;;;;;23.11;100.00;100033.25;5084774;28;20032;-60
2023/08/14 00:59:08;;;;;;;0.30;0.30;;;;;;;23.12;100.00;100015.97;5090419;28;20039;-60
2023/08/14 01:01:34;;;;;;;0.30;0.30;;;;;;;23.12;100.00;100008.69;5081679;28;20036;-60
2023/08/14 01:04:00;;;;;;;0.30;0.30;;;;;;;23.08;100.00;100000.97;5072004;28;20034;-60
2023/08/14 01:06:25;;;;;;;0.30;0.30;;;;;;;23.06;100.00;99990.19;5074561;28;20032;-60
2023/08/14 01:08:51;;;;;;;0.30;0.30;;;;;;;23.06;100.00;99994.78;5071611;28;20512;-59
2023/08/14 01:11:23;;;;;;;0.30;0.30;;;;;;;23.04;100.00;99992.22;5071699;28;20085;-60
2023/08/14 01:14:07;;;;;;;0.40;0.40;;;;;;;23.05;100.00;99988.50;5074340;28;20485;-60
2023/08/14 01:16:40;;;;;;;0.30;0.30;;;;;;;23.09;100.00;99991.81;5080999;28;20028;-59
2023/08/14 01:19:11;;;;;;;0.30;0.30;;;;;;;23.08;100.00;99995.53;5091829;28;20388;-59
2023/08/14 01:21:47;;;;;;;0.30;0.30;;;;;;;23.04;100.00;99988.63;5091869;28;20043;-60
2023/08/14 01:24:29;;;;;;;0.30;0.30;;;;;;;23.04;100.00;99992.22;5073951;28;20034;-59
2023/08/14 01:26:55;;;;;;;0.30;0.30;;;;;;;22.99;100.00;99993.56;5071644;28;20032;-60
2023/08/14 01:29:21;;;;;;;0.38;0.38;;;;;;;22.94;100.00;99999.38;5073167;28;20647;-60
2023/08/14 01:31:46;;;;;;;0.30;0.30;;;;;;;22.87;100.00;99998.16;5070971;28;20032;-60
2023/08/14 01:34:13;;;;;;;0.30;0.30;;;;;;;22.84;100.00;100003.00;5073011;28;20119;-60
2023/08/14 01:36:54;;;;;;;0.30;0.30;;;;;;;22.77;100.00;99997.22;5078454;28;20024;-59
2023/08/14 01:39:26;;;;;;;0.30;0.30;;;;;;;22.72;100.00;99999.44;5088802;28;20026;-60
2023/08/14 01:42:14;;;;;;;0.30;0.30;;;;;;;22.68;100.00;99988.97;5087959;28;20114;-60
2023/08/14 01:44:42;;;;;;;0.30;0.30;;;;;;;22.60;100.00;99984.16;5089612;28;20780;-60
2023/08/14 01:47:13;;;;;;;0.30;0.30;;;;;;;22.50;100.00;99980.50;5090631;28;20020;-60
2023/08/14 01:49:40;;;;;;;0.30;0.30;;;;;;;22.47;100.00;99982.59;5091131;28;20054;-60
2023/08/14 01:52:06;;;;;;;0.30;0.30;;;;;;;22.41;100.00;99986.66;5087510;28;20035;-60
2023/08/14 01:54:32;;;;;;;0.30;0.30;;;;;;;22.38;100.00;99989.59;5090399;28;20032;-60
2023/08/14 01:56:57;;;;;;;0.40;0.40;;;;;;;22.32;100.00;99995.53;5090518;28;20032;-60
2023/08/14 01:59:35;;;;;;;0.30;0.30;;;;;;;22.32;100.00;99982.00;5089915;28;20036;-60
2023/08/14 02:02:00;;;;;;;0.30;0.30;;;;;;;22.32;100.00;99979.28;5085801;28;20465;-60
2023/08/14 02:04:26;;;;;;;0.30;0.30;;;;;;;22.31;100.00;99969.41;5089133;28;20023;-60
2023/08/14 02:06:51;;;;;;;0.40;0.40;;;;;;;22.32;100.00;99968.44;5085621;28;20020;-60
2023/08/14 02:09:17;;;;;;;0.30;0.30;;;;;;;22.31;100.00;99980.25;5067988;28;20052;-60
2023/08/14 02:11:43;;;;;;;0.40;0.40;;;;;;;22.33;100.00;99981.00;5069999;28;20629;-60
2023/08/14 02:14:08;;;;;;;0.30;0.30;;;;;;;22.31;100.00;99991.09;5075745;28;20036;-60
2023/08/14 02:16:34;;;;;;;0.30;0.30;;;;;;;22.26;100.00;99987.88;5090819;28;20228;-60
2023/08/14 02:18:59;;;;;;;0.30;0.30;;;;;;;22.15;100.00;99993.31;5090580;28;20535;-60
2023/08/14 02:21:25;;;;;;;0.30;0.30;;;;;;;22.09;100.00;99988.41;5090415;28;20118;-60
2023/08/14 02:23:50;;;;;;;0.35;0.35;;;;;;;22.11;100.00;99972.84;5080493;28;20029;-60
2023/08/14 02:26:16;;;;;;;0.40;0.40;;;;;;;22.11;100.00;99972.84;5069804;28;20024;-60
2023/08/14 02:28:41;;;;;;;0.30;0.30;;;;;;;22.10;100.00;99968.44;5069990;28;20090;-59
2023/08/14 02:31:06;;;;;;;0.38;0.38;;;;;;;22.07;100.00;99971.41;5068979;28;20032;-60
2023/08/14 02:33:32;;;;;;;0.30;0.30;;;;;;;22.03;100.00;99973.50;5085343;28;20107;-60
2023/08/14 02:35:57;;;;;;;0.30;0.30;;;;;;;22.02;100.00;99973.63;5088947;28;20078;-60
2023/08/14 02:38:23;;;;;;;0.30;0.30;;;;;;;22.03;100.00;99972.63;5088870;28;20037;-60
2023/08/14 02:40:48;;;;;;;0.30;0.30;;;;;;;22.03;100.00;99964.50;5077890;28;20028;-60
2023/08/14 02:43:13;;;;;;;0.30;0.30;;;;;;;22.05;100.00;99960.69;5084777;28;20020;-60
2023/08/14 02:45:39;;;;;;;0.40;0.40;;;;;;;22.09;100.00;99945.88;5090162;28;20057;-60
2023/08/14 02:48:04;;;;;;;0.30;0.30;;;;;;;22.12;100.00;99945.63;5090348;28;20024;-59
2023/08/14 02:50:30;;;;;;;0.38;0.38;;;;;;;22.10;100.00;99941.34;5074143;28;20048;-59
2023/08/14 02:52:55;;;;;;;0.40;0.40;;;;;;;22.10;100.00;99946.75;5070015;28;20085;-60
2023/08/14 02:55:20;;;;;;;0.40;0.40;;;;;;;22.11;100.00;99948.47;5079760;28;20016;-60
2023/08/14 02:57:46;;;;;;;0.30;0.30;;;;;;;22.10;100.00;99939.50;5088047;28;20024;-60
2023/08/14 03:00:12;;;;;;;0.40;0.40;;;;;;;22.09;100.00;99936.94;5072180;28;20028;-60
2023/08/14 03:02:37;;;;;;;0.30;0.30;;;;;;;22.07;100.00;99937.03;5089257;28;20093;-60
2023/08/14 03:05:03;;;;;;;0.40;0.40;;;;;;;22.07;100.00;99931.59;5089078;28;20097;-60
2023/08/14 03:07:28;;;;;;;0.40;0.40;;;;;;;22.04;100.00;99936.44;5085321;28;20067;-60
2023/08/14 03:09:53;;;;;;;0.30;0.30;;;;;;;22.06;100.00;99945.28;5088859;28;20669;-60
2023/08/14 03:12:19;;;;;;;0.40;0.40;;;;;;;22.06;100.00;99958.81;5081682;28;20032;-60
2023/08/14 03:14:44;;;;;;;0.40;0.40;;;;;;;22.06;100.00;99967.81;5069316;28;20036;-60
2023/08/14 03:17:10;;;;;;;0.40;0.40;;;;;;;22.08;100.00;99975.81;5069236;28;20074;-60
2023/08/14 03:19:35;;;;;;;0.30;0.30;;;;;;;22.08;100.00;99970.41;5087156;28;20026;-60
2023/08/14 03:22:01;;;;;;;0.30;0.30;;;;;;;22.07;100.00;99965.97;5089021;28;20499;-60
2023/08/14 03:24:26;;;;;;;0.40;0.40;;;;;;;22.10;100.00;99973.84;5080498;28;20037;-60
2023/08/14 03:26:52;;;;;;;0.30;0.30;;;;;;;22.15;100.00;99968.94;5086338;28;20052;-60
2023/08/14 03:29:17;;;;;;;0.35;0.35;;;;;;;22.14;100.00;99959.09;5087030;28;20446;-60
2023/08/14 03:31:42;;;;;;;0.40;0.40;;;;;;;22.14;100.00;99967.22;5070299;28;20032;-60
2023/08/14 03:34:09;;;;;;;0.40;0.40;;;;;;;22.14;100.00;99964.50;5067868;28;20035;-60
2023/08/14 03:36:34;;;;;;;0.40;0.40;;;;;;;22.16;100.00;99951.69;5073220;28;20020;-60
2023/08/14 03:39:00;;;;;;;0.38;0.38;;;;;;;22.15;100.00;99949.97;5075663;28;20106;-60
2023/08/14 03:41:25;;;;;;;0.40;0.40;;;;;;;22.14;100.00;99953.66;5069453;28;20035;-60
2023/08/14 03:43:50;;;;;;;0.40;0.40;;;;;;;22.12;100.00;99977.31;5073104;28;20249;-60
2023/08/14 03:46:16;;;;;;;0.40;0.40;;;;;;;22.09;100.00;99966.72;5085764;28;20495;-60
2023/08/14 03:48:41;;;;;;;0.30;0.30;;;;;;;22.07;100.00;99974.94;5089075;28;20023;-60
2023/08/14 03:51:07;;;;;;;0.40;0.40;;;;;;;22.13;100.00;99981.72;5074617;28;20028;-60
2023/08/14 03:53:33;;;;;;;0.40;0.40;;;;;;;22.12;100.00;99980.88;5068703;28;20025;-60
2023/08/14 03:55:59;;;;;;;0.40;0.40;;;;;;;22.12;100.00;99982.72;5082720;28;20072;-60
2023/08/14 03:58:24;;;;;;;0.40;0.40;;;;;;;22.10;100.00;99979.28;5068393;28;20028;-60
2023/08/14 04:00:50;;;;;;;0.35;0.35;;;;;;;22.10;100.00;99985.56;5068518;28;20040;-60
2023/08/14 04:03:15;;;;;;;0.40;0.40;;;;;;;22.08;100.00;99986.66;5082999;28;20035;-60
2023/08/14 04:05:41;;;;;;;0.40;0.40;;;;;;;22.04;100.00;99996.88;5088914;28;20028;-60
2023/08/14 04:08:07;;;;;;;0.38;0.38;;;;;;;22.03;100.00;99995.16;5082856;28;20025;-60
2023/08/14 04:10:34;;;;;;;0.40;0.40;;;;;;;22.02;100.00;99993.44;5068478;28;20024;-60
2023/08/14 04:13:00;;;;;;;0.30;0.30;;;;;;;22.05;100.00;99989.63;5068505;28;20020;-60
2023/08/14 04:15:25;;;;;;;0.40;0.40;;;;;;;22.06;100.00;99975.06;5070927;28;20039;-60
2023/08/14 04:17:51;;;;;;;0.40;0.40;;;;;;;22.05;100.00;99976.06;5067637;28;20024;-60
2023/08/14 04:20:16;;;;;;;0.40;0.40;;;;;;;21.95;100.00;99965.13;5080526;28;20074;-60
2023/08/14 04:22:42;;;;;;;0.40;0.40;;;;;;;21.93;100.00;99950.84;5067109;28;20063;-60
2023/08/14 04:25:07;;;;;;;0.30;0.30;;;;;;;21.91;100.00;99931.13;5067453;28;20510;-60
2023/08/14 04:27:36;;;;;;;0.38;0.38;;;;;;;21.90;100.00;99931.25;5066670;28;20258;-60
2023/08/14 04:30:03;;;;;;;0.40;0.40;;;;;;;21.90;100.00;99926.72;5068869;28;20048;-60
2023/08/14 04:32:29;;;;;;;0.40;0.40;;;;;;;21.92;100.00;99926.56;5064551;28;20518;-59
2023/08/14 04:34:54;;;;;;;0.40;0.40;;;;;;;21.95;100.00;99934.44;5075563;28;20021;-60
2023/08/14 04:37:20;;;;;;;0.40;0.40;;;;;;;21.95;100.00;99926.31;5087313;28;20028;-60
2023/08/14 04:39:45;;;;;;;0.40;0.40;;;;;;;21.98;100.00;99918.81;5087733;28;20035;-60
2023/08/14 04:42:10;;;;;;;0.40;0.40;;;;;;;21.96;100.00;99900.94;5072862;28;20066;-60
2023/08/14 04:44:36;;;;;;;0.40;0.40;;;;;;;21.99;100.00;99914.28;5067961;28;20107;-60
2023/08/14 04:47:01;;;;;;;0.40;0.40;;;;;;;21.99;100.00;99916.97;5079554;28;20020;-60
2023/08/14 04:49:27;;;;;;;0.40;0.40;;;;;;;21.94;100.00;99927.31;5073145;28;20028;-60
2023/08/14 04:51:52;;;;;;;0.40;0.40;;;;;;;21.92;100.00;99915.75;5088336;28;20460;-60
2023/08/14 04:54:18;;;;;;;0.40;0.40;;;;;;;21.95;100.00;99912.78;5087888;28;20024;-60
2023/08/14 04:56:43;;;;;;;0.45;0.45;;;;;;;21.90;100.00;99923.13;5079333;28;20048;-60
2023/08/14 04:59:08;;;;;;;0.40;0.40;;;;;;;21.99;100.00;99916.97;5075810;28;20062;-60
2023/08/14 05:01:34;;;;;;;0.40;0.40;;;;;;;22.00;100.00;99892.47;5078038;28;20048;-60
2023/08/14 05:03:59;;;;;;;0.32;0.32;;;;;;;21.97;100.00;99894.56;5080189;28;20119;-60
2023/08/14 05:06:24;;;;;;;0.40;0.40;;;;;;;21.97;100.00;99897.28;5085085;28;20035;-60
2023/08/14 05:08:50;;;;;;;0.40;0.40;;;;;;;21.93;100.00;99907.50;5069440;28;20041;-60
2023/08/14 05:11:15;;;;;;;0.50;0.50;;;;;;;21.91;100.00;99912.16;5067395;28;20078;-60
2023/08/14 05:13:44;;;;;;;0.40;0.40;;;;;;;21.92;100.00;99907.63;5080495;28;20111;-60
2023/08/14 05:16:10;;;;;;;0.40;0.40;;;;;;;21.95;100.00;99913.66;5087117;28;20035;-60
2023/08/14 05:18:35;;;;;;;0.40;0.40;;;;;;;22.02;100.00;99917.59;5086678;28;20032;-60
2023/08/14 05:21:01;;;;;;;0.40;0.40;;;;;;;22.13;100.00;99927.53;5077495;28;20035;-60
2023/08/14 05:23:26;;;;;;;0.40;0.40;;;;;;;22.24;100.00;99932.94;5065352;28;20025;-60
2023/08/14 05:25:51;;;;;;;0.40;0.40;;;;;;;22.38;100.00;99937.25;5065333;28;20047;-60
2023/08/14 05:28:17;;;;;;;0.40;0.40;;;;;;;22.52;100.00;99943.25;5065036;28;20033;-60
2023/08/14 05:30:45;;;;;;;0.40;0.40;;;;;;;22.70;100.00;99941.75;5049770;28;20097;-61
2023/08/14 05:33:10;;;;;;;0.40;0.40;;;;;;;22.88;100.00;99940.19;5077257;28;20407;-60
2023/08/14 05:35:36;;;;;;;0.40;0.40;;;;;;;23.02;100.00;99937.19;5077238;28;20028;-60
2023/08/14 05:38:01;;;;;;;0.40;0.40;;;;;;;23.16;100.00;99942.31;5067590;28;20032;-60
2023/08/14 05:40:27;;;;;;;0.40;0.40;;;;;;;23.27;100.00;99947.72;5069984;28;20038;-60
2023/08/14 05:43:07;;;;;;;0.40;0.40;;;;;;;23.34;100.00;99948.91;5067436;28;20422;-60
2023/08/14 05:45:43;;;;;;;0.47;0.47;;;;;;;23.38;100.00;99941.34;5071232;28;20023;-60
2023/08/14 05:48:09;;;;;;;0.40;0.40;;;;;;;23.36;100.00;99943.34;5070993;28;20024;-60
2023/08/14 05:50:35;;;;;;;0.45;0.45;;;;;;;23.30;100.00;99942.03;5085160;28;20027;-60
2023/08/14 05:53:04;;;;;;;0.40;0.40;;;;;;;23.23;100.00;99946.22;5090374;28;20059;-60
2023/08/14 05:55:35;;;;;;;0.40;0.40;;;;;;;23.17;100.00;99938.63;5083793;28;20037;-60
2023/08/14 05:58:02;;;;;;;0.40;0.40;;;;;;;23.14;100.00;99941.59;5070846;28;20068;-61
2023/08/14 06:00:28;;;;;;;0.40;0.40;;;;;;;23.07;100.00;99948.53;5072681;28;20035;-61
2023/08/14 06:02:54;;;;;;;0.40;0.40;;;;;;;23.07;100.00;99948.53;5090671;28;20032;-61
2023/08/14 06:05:20;;;;;;;0.40;0.40;;;;;;;23.07;100.00;99945.81;5089195;28;20127;-61
2023/08/14 06:07:50;;;;;;;0.40;0.40;;;;;;;23.01;100.00;99946.34;5072566;28;20032;-60
2023/08/14 06:10:16;;;;;;;0.40;0.40;;;;;;;23.05;100.00;99947.78;5070693;28;20055;-60
2023/08/14 06:12:44;;;;;;;0.40;0.40;;;;;;;23.06;100.00;99949.50;5072029;28;20040;-60
2023/08/14 06:15:10;;;;;;;0.40;0.40;;;;;;;23.08;100.00;99952.13;5069592;28;20031;-60
2023/08/14 06:17:35;;;;;;;0.40;0.40;;;;;;;23.05;100.00;99953.22;5071207;28;20052;-60
2023/08/14 06:20:02;;;;;;;0.40;0.40;;;;;;;23.14;100.00;99938.88;5079382;28;20130;-60
2023/08/14 06:22:27;;;;;;;0.40;0.40;;;;;;;23.32;100.00;99926.47;5089504;28;20028;-60
2023/08/14 06:24:53;;;;;;;0.40;0.40;;;;;;;23.37;100.00;99905.22;5076632;28;20479;-60
2023/08/14 06:27:18;;;;;;;0.40;0.40;;;;;;;23.58;100.00;99907.03;5069750;28;20036;-60
2023/08/14 06:29:44;;;;;;;0.40;0.40;;;;;;;23.52;100.00;99913.00;5077155;28;20043;-61
2023/08/14 06:32:09;;;;;;;0.40;0.40;;;;;;;23.53;100.00;99903.84;5082700;28;20028;-61
2023/08/14 06:34:35;;;;;;;0.40;0.40;;;;;;;23.84;100.00;99919.22;5073964;28;20028;-60
2023/08/14 06:37:01;;;;;;;0.40;0.40;;;;;;;23.98;100.00;99913.44;5069967;28;20039;-60
2023/08/14 06:39:26;;;;;;;0.40;0.40;;;;;;;24.04;100.00;99921.03;5072800;28;20028;-61
2023/08/14 06:41:52;;;;;;;0.35;0.35;;;;;;;24.21;100.00;99933.97;5088140;28;20020;-61
2023/08/14 06:44:17;;;;;;;0.40;0.40;;;;;;;24.40;100.00;99928.56;5087716;28;20107;-61
2023/08/14 06:46:43;;;;;;;0.40;0.40;;;;;;;24.63;100.00;99935.50;5075279;28;20465;-61
2023/08/14 06:49:10;;;;;;;0.45;0.45;;;;;;;24.77;100.00;99935.16;5072786;28;20044;-61
2023/08/14 06:51:36;;;;;;;0.40;0.40;;;;;;;24.99;100.00;99923.97;5089750;28;20054;-61
2023/08/14 06:54:02;;;;;;;0.40;0.40;;;;;;;25.13;100.00;99929.00;5084439;28;20028;-61
2023/08/14 06:56:27;;;;;;;0.40;0.40;;;;;;;25.19;100.00;99933.84;5088971;28;20499;-61
2023/08/14 06:58:52;;;;;;;0.40;0.40;;;;;;;25.40;100.00;99939.19;5089568;28;20039;-62
2023/08/14 07:01:19;;;;;;;0.40;0.40;;;;;;;25.59;100.00;99940.00;5076651;28;20035;-61
2023/08/14 07:03:44;;;;;;;0.30;0.30;;;;;;;25.79;100.00;99933.50;5069044;28;20032;-61
2023/08/14 07:06:10;;;;;;;0.32;0.32;;;;;;;25.96;100.00;99924.53;5069083;28;20081;-61
2023/08/14 07:08:35;;;;;;;0.40;0.40;;;;;;;26.23;100.00;99928.34;5087003;28;20090;-61
2023/08/14 07:11:01;;;;;;;0.30;0.30;;;;;;;26.39;100.00;99920.38;5056322;28;20024;-62
2023/08/14 07:13:26;;;;;;;0.40;0.40;;;;;;;26.59;98.27;99921.97;5051769;28;20055;-61
2023/08/14 07:15:52;;;;;;;0.30;0.30;;;;;;;26.82;98.70;99921.38;5048013;28;20028;-61
2023/08/14 07:18:18;;;;;;;0.40;0.40;;;;;;;27.14;97.48;99923.56;5062497;28;20614;-62
2023/08/14 07:20:47;;;;;;;0.30;0.30;;;;;;;27.41;95.33;99919.91;5067962;28;20039;-61
2023/08/14 07:23:16;;;;;;;0.30;0.30;;;;;;;27.63;94.82;99913.94;5052951;28;20456;-62
2023/08/14 07:25:42;;;;;;;0.40;0.40;;;;;;;27.85;91.12;99913.38;5054769;28;20029;-62
2023/08/14 07:28:07;;;;;;;0.20;0.20;;;;;;;28.02;89.28;99912.50;5048860;28;20021;-62
2023/08/14 07:30:34;;;;;;;0.30;0.30;;;;;;;28.25;86.09;99916.38;5049223;28;20690;-62
2023/08/14 07:33:00;;;;;;;0.30;0.30;;;;;;;28.65;85.23;99923.91;5048303;28;20123;-62
2023/08/14 07:35:25;;;;;;;0.30;0.30;;;;;;;28.77;81.87;99928.88;5065819;28;20050;-62
2023/08/14 07:37:51;;;;;;;0.30;0.30;;;;;;;29.01;82.04;99942.63;5068218;28;20060;-63
2023/08/14 07:40:17;;;;;;;0.30;0.30;;;;;;;29.37;81.71;99954.19;5053733;28;20031;-63
2023/08/14 07:42:42;;;;;;;0.22;0.22;;;;;;;29.52;79.30;99936.84;5048801;28;20029;-63
2023/08/14 07:45:08;;;;;;;0.20;0.20;;;;;;;29.75;78.39;99948.03;5050815;28;20146;-63
2023/08/14 07:47:34;;;;;;;0.30;0.30;;;;;;;30.16;76.45;99941.44;5048730;28;20017;-63
2023/08/14 07:49:59;;;;;;;0.20;0.20;;;;;;;30.48;75.36;99946.81;5058262;28;20392;-63
2023/08/14 07:52:27;;;;;;;0.25;0.25;;;;;;;30.79;72.05;99947.72;5050565;28;20258;-63
2023/08/14 07:54:52;;;;;;;0.20;0.20;;;;;;;31.06;72.38;99956.47;5060582;28;20543;-63
2023/08/14 07:57:18;;;;;;;0.20;0.20;;;;;;;31.50;67.96;99960.31;5062668;28;20144;-63
2023/08/14 07:59:43;;;;;;;0.20;0.20;;;;;;;30.91;68.64;99953.66;5066976;28;20074;-62
2023/08/14 08:02:08;;;;;;;0.20;0.20;;;;;;;30.51;69.57;99962.91;5053740;28;20020;-62
2023/08/14 08:04:37;;;;;;;0.20;0.20;;;;;;;29.75;73.03;99953.53;5047691;28;20052;-62
2023/08/14 08:07:05;;;;;;;0.10;0.10;;;;;;;29.51;75.87;99964.44;5048697;28;20485;-62
2023/08/14 08:09:30;;;;;;;0.20;0.20;;;;;;;29.21;78.02;99965.16;5061116;28;20044;-62
2023/08/14 08:11:56;;;;;;;0.10;0.10;;;;;;;28.85;78.02;99969.13;5067452;28;20456;-62
2023/08/14 08:14:22;;;;;;;0.10;0.10;;;;;;;28.78;79.03;99973.56;5082773;28;20032;-62
2023/08/14 08:16:49;;;;;;;0.20;0.20;;;;;;;28.79;81.05;99967.06;5087550;28;20067;-62
2023/08/14 08:19:14;;;;;;;0.13;0.13;;;;;;;28.86;81.63;99976.31;5084372;28;20024;-62
2023/08/14 08:21:40;;;;;;;0.45;0.45;;;;;;;29.01;80.28;99980.97;5085103;28;20043;-61
2023/08/14 08:24:06;;;;;;;6.80;6.25;;;;;;;29.41;79.40;99977.47;5088076;28;20556;-61
2023/08/14 08:26:31;;;;;;;69.00;63.50;;;;;;;29.52;78.62;99980.72;5070850;28;20062;-60
2023/08/14 08:28:56;;;;;;;0.30;0.30;;;;;;;29.56;78.17;99982.13;5068034;28;20027;-62
2023/08/14 08:31:22;;;;;;;11.48;10.48;;;;;;;29.41;77.37;99977.47;5077596;28;20111;-63
2023/08/14 08:33:48;;;;;;;0.20;0.20;;;;;;;29.21;77.88;99965.16;5078648;28;20039;-62
2023/08/14 08:36:17;;;;;;;0.30;0.30;;;;;;;29.30;78.24;99970.47;5079134;28;20024;-62
2023/08/14 08:38:47;;;;;;;0.80;0.80;;;;;;;29.75;77.60;99969.97;5072131;28;20021;-63
2023/08/14 08:41:19;;;;;;;0.20;0.20;;;;;;;30.45;73.15;99971.88;5070177;28;20024;-63
2023/08/14 08:43:45;;;;;;;0.30;0.30;;;;;;;30.87;69.45;99974.31;5066115;28;20111;-63
2023/08/14 08:46:12;;;;;;;0.20;0.20;;;;;;;31.42;68.81;99971.34;5065853;28;20416;-63
2023/08/14 08:48:41;;;;;;;0.10;0.10;;;;;;;31.88;66.22;99973.03;5068704;28;20021;-63
2023/08/14 08:51:08;;;;;;;0.20;0.20;;;;;;;32.43;63.25;99973.53;5084964;28;20444;-63
2023/08/14 08:53:34;;;;;;;0.20;0.20;;;;;;;32.06;64.06;99965.28;5083465;28;20547;-63
2023/08/14 08:56:00;;;;;;;0.20;0.20;;;;;;;31.66;64.97;99976.69;5086107;28;20044;-63
2023/08/14 08:58:26;;;;;;;0.20;0.20;;;;;;;31.26;67.48;99964.06;5087966;28;20047;-63
2023/08/14 09:00:54;;;;;;;0.20;0.20;;;;;;;31.10;67.87;99963.34;5075368;28;20063;-63
2023/08/14 09:03:20;;;;;;;8.40;7.57;;;;;;;31.21;68.10;99966.50;5066722;28;20688;-63
2023/08/14 09:05:46;;;;;;;0.10;0.10;;;;;;;31.11;68.57;99965.91;5068661;28;20043;-63
2023/08/14 09:08:11;;;;;;;0.20;0.20;;;;;;;31.26;67.73;99969.56;5086665;28;20052;-63
2023/08/14 09:10:37;;;;;;;0.20;0.20;;;;;;;31.04;67.16;99964.06;5087125;28;20043;-63
2023/08/14 09:13:03;;;;;;;0.20;0.20;;;;;;;31.44;68.46;99966.53;5083841;28;20066;-63
2023/08/14 09:15:28;;;;;;;0.20;0.20;;;;;;;32.00;66.24;99977.94;5086554;28;20066;-63
2023/08/14 09:17:54;;;;;;;0.20;0.20;;;;;;;32.05;64.56;99974.59;5082866;28;20111;-63
2023/08/14 09:20:20;;;;;;;0.10;0.10;;;;;;;32.27;66.03;99976.44;5082614;28;20028;-63
2023/08/14 09:22:46;;;;;;;0.38;0.38;;;;;;;32.74;63.03;99974.16;5090366;28;20039;-63
2023/08/14 09:25:12;;;;;;;0.20;0.20;;;;;;;32.72;62.11;99979.00;5090678;28;20031;-63
2023/08/14 09:27:37;;;;;;;0.20;0.20;;;;;;;33.03;60.24;99985.13;5086885;28;20059;-63
2023/08/14 09:30:05;;;;;;;1.75;1.15;;;;;;;33.07;59.04;99986.47;5090642;28;20125;-63
2023/08/14 09:32:31;;;;;;;3.53;3.30;;;;;;;33.19;61.60;99990.44;5088141;28;20077;-63
2023/08/14 09:35:01;;;;;;;0.20;0.20;;;;;;;33.53;60.69;99986.97;5090138;28;20115;-64
2023/08/14 09:37:27;;;;;;;0.20;0.20;;;;;;;34.01;59.18;99990.84;5091417;28;20024;-64
2023/08/14 09:40:15;;;;;;;0.10;0.10;;;;;;;33.95;58.61;99983.38;5091344;28;20437;-63
2023/08/14 09:42:45;;;;;;;1.88;1.65;;;;;;;34.15;57.19;99987.97;5082993;28;20024;-64
2023/08/14 09:45:12;;;;;;;0.20;0.20;;;;;;;34.19;56.44;99993.94;5071318;28;20062;-63
2023/08/14 09:47:39;;;;;;;0.22;0.22;;;;;;;33.90;57.88;99985.84;5073551;28;20026;-63
2023/08/14 09:50:06;;;;;;;0.10;0.10;;;;;;;33.43;61.30;99996.66;5090830;28;20498;-63
2023/08/14 09:52:32;;;;;;;0.10;0.10;;;;;;;33.21;63.51;100004.84;5076975;28;20031;-63
2023/08/14 09:54:59;;;;;;;0.10;0.10;;;;;;;33.04;63.78;100002.53;5077882;28;20127;-63
2023/08/14 09:57:27;;;;;;;0.10;0.10;;;;;;;32.50;65.16;100001.16;5086607;28;20463;-63
2023/08/14 09:59:53;;;;;;;0.10;0.10;;;;;;;32.22;67.96;100005.56;5090001;28;20050;-63
2023/08/14 10:02:22;;;;;;;0.22;0.22;;;;;;;32.68;66.72;100002.47;5088540;28;20040;-63
2023/08/14 10:04:49;;;;;;;0.10;0.10;;;;;;;32.89;65.18;100010.81;5086698;28;20027;-63
2023/08/14 10:07:16;;;;;;;0.93;0.93;;;;;;;33.25;63.21;100000.69;5088109;28;20020;-63
2023/08/14 10:09:45;;;;;;;0.10;0.10;;;;;;;33.85;62.37;99997.50;5077217;28;20041;-63
2023/08/14 10:12:16;;;;;;;2.40;2.30;;;;;;;34.01;59.33;99996.34;5068684;28;20495;-64
2023/08/14 10:14:59;;;;;;;0.10;0.10;;;;;;;34.09;61.70;100004.50;5084189;28;20028;-63
2023/08/14 10:17:47;;;;;;;0.10;0.10;;;;;;;34.35;57.93;100010.22;5068321;28;20035;-64
2023/08/14 10:20:17;;;;;;;0.30;0.30;;;;;;;34.38;59.98;100004.28;5070188;28;20154;-63
2023/08/14 10:22:44;;;;;;;0.10;0.10;;;;;;;34.24;58.54;100003.34;5071818;28;20024;-63
2023/08/14 10:25:11;;;;;;;0.10;0.10;;;;;;;34.30;57.98;100001.69;5069808;28;20039;-64
2023/08/14 10:27:36;;;;;;;0.55;0.55;;;;;;;34.37;58.97;100002.56;5077769;28;20369;-64
2023/08/14 10:30:02;;;;;;;0.10;0.10;;;;;;;34.24;58.60;99997.81;5087785;28;20035;-64
2023/08/14 10:32:28;;;;;;;0.10;0.10;;;;;;;34.06;58.29;99993.84;5087949;28;20102;-63
2023/08/14 10:34:55;;;;;;;0.10;0.10;;;;;;;34.01;58.25;99997.22;5071333;28;20024;-63
2023/08/14 10:37:39;;;;;;;0.08;0.08;;;;;;;33.88;60.30;100002.59;5069598;28;20036;-63
2023/08/14 10:40:16;;;;;;;0.10;0.10;;;;;;;33.62;60.69;100002.38;5085046;28;20024;-63
2023/08/14 10:42:46;;;;;;;11.95;10.77;;;;;;;33.36;62.18;99999.31;5081519;28;20028;-64
2023/08/14 10:45:15;;;;;;;0.10;0.10;;;;;;;33.24;62.67;100010.00;5069764;28;20028;-64
2023/08/14 10:47:42;;;;;;;0.35;0.30;;;;;;;33.16;63.06;100007.34;5071647;28;20028;-64
2023/08/14 10:50:15;;;;;;;5.47;3.30;;;;;;;33.08;64.66;100001.13;5079484;28;20032;-64
2023/08/14 10:52:53;;;;;;;0.10;0.10;;;;;;;33.43;64.18;100007.69;5088256;28;20107;-64
2023/08/14 10:55:40;;;;;;;0.10;0.10;;;;;;;33.83;60.34;100001.47;5088008;28;20032;-64
2023/08/14 10:58:28;;;;;;;0.03;0.03;;;;;;;34.38;59.55;100001.53;5073562;28;20504;-64
2023/08/14 11:00:54;;;;;;;0.03;0.03;;;;;;;34.84;57.76;100005.44;5067764;28;20028;-64
2023/08/14 11:03:20;;;;;;;0.20;0.20;;;;;;;35.23;55.69;99989.00;5079345;28;20032;-64
2023/08/14 11:05:45;;;;;;;0.00;0.00;;;;;;;35.13;56.70;99983.03;5087743;28;20032;-64
2023/08/14 11:08:12;;;;;;;0.20;0.20;;;;;;;35.00;56.24;99993.19;5084357;28;20107;-64
2023/08/14 11:10:39;;;;;;;0.10;0.10;;;;;;;35.63;55.82;99988.06;5088480;28;20058;-64
2023/08/14 11:13:09;;;;;;;0.08;0.08;;;;;;;35.92;52.74;99972.13;5088424;28;20113;-64
2023/08/14 11:15:36;;;;;;;0.10;0.10;;;;;;;35.92;53.07;99977.66;5076636;28;20035;-64
2023/08/14 11:18:05;;;;;;;0.10;0.10;;;;;;;35.78;51.35;99979.56;5076251;28;20070;-64
2023/08/14 11:20:31;;;;;;;0.10;0.10;;;;;;;35.99;53.67;99978.50;5087827;28;20490;-64
2023/08/14 11:22:59;;;;;;;0.10;0.10;;;;;;;36.32;52.89;99971.00;5076156;28;20491;-64
2023/08/14 11:25:25;;;;;;;0.00;0.00;;;;;;;36.79;49.53;99965.16;5076638;28;20067;-64